createdAt,value
2018-09-04T00:01:10.481Z,99.90
2018-09-04T00:03:42.305Z,99.90
2018-09-04T00:06:13.550Z,99.90
2018-09-04T00:08:45.193Z,99.90
2018-09-04T00:11:16.430Z,99.90
2018-09-04T00:13:48.152Z,99.90
2018-09-04T00:16:19.711Z,99.90
2018-09-04T00:18:51.489Z,99.90
2018-09-04T00:21:23.527Z,99.90
2018-09-04T00:23:55.053Z,99.90
2018-09-04T00:26:26.637Z,99.90
2018-09-04T00:28:58.193Z,99.90
2018-09-04T00:31:29.561Z,99.90
2018-09-04T00:34:04.532Z,99.90
2018-09-04T00:36:35.770Z,99.90
2018-09-04T00:39:09.647Z,99.90
2018-09-04T00:41:41.133Z,99.90
2018-09-04T00:44:12.976Z,99.90
2018-09-04T00:46:45.349Z,99.90
2018-09-04T00:49:17.225Z,99.90
2018-09-04T00:51:48.749Z,99.90
2018-09-04T00:54:20.433Z,99.90
2018-09-04T00:56:51.756Z,99.90
2018-09-04T00:59:23.893Z,99.90
2018-09-04T01:01:55.086Z,99.90
2018-09-04T01:04:26.973Z,99.90
2018-09-04T01:06:58.520Z,99.90
2018-09-04T01:09:30.701Z,99.90
2018-09-04T01:12:01.994Z,99.90
2018-09-04T01:14:33.398Z,99.90
2018-09-04T01:17:04.710Z,99.90
2018-09-04T01:19:36.406Z,99.90
2018-09-04T01:22:07.881Z,98.20
2018-09-04T01:24:40.009Z,97.80
2018-09-04T01:27:11.160Z,96.80
2018-09-04T01:29:45.848Z,96.30
2018-09-04T01:32:17.201Z,95.70
2018-09-04T01:34:48.887Z,95.40
2018-09-04T01:37:20.494Z,95.10
2018-09-04T01:39:52.785Z,94.80
2018-09-04T01:42:23.921Z,94.90
2018-09-04T01:44:55.806Z,94.60
2018-09-04T01:47:28.454Z,94.40
2018-09-04T01:50:00.841Z,94.20
2018-09-04T01:52:32.025Z,94.00
2018-09-04T01:55:03.882Z,94.00
2018-09-04T01:57:35.473Z,93.70
2018-09-04T02:00:07.513Z,93.30
2018-09-04T02:02:38.889Z,92.80
2018-09-04T02:05:10.696Z,92.60
2018-09-04T02:07:42.237Z,92.20
2018-09-04T02:10:14.607Z,92.20
2018-09-04T02:12:46.601Z,92.20
2018-09-04T02:15:18.200Z,92.20
2018-09-04T02:17:50.869Z,92.10
2018-09-04T02:20:23.846Z,92.00
2018-09-04T02:22:55.438Z,92.00
2018-09-04T02:25:32.542Z,92.00
2018-09-04T02:28:05.245Z,92.20
2018-09-04T02:30:37.653Z,92.00
2018-09-04T02:33:09.098Z,92.20
2018-09-04T02:35:40.791Z,92.30
2018-09-04T02:38:12.246Z,92.20
2018-09-04T02:40:44.094Z,92.00
2018-09-04T02:43:16.188Z,92.10
2018-09-04T02:45:48.226Z,92.30
2018-09-04T02:48:21.937Z,92.30
2018-09-04T02:50:54.634Z,92.30
2018-09-04T02:53:26.709Z,92.40
2018-09-04T02:55:59.451Z,92.50
2018-09-04T02:58:31.621Z,92.40
2018-09-04T03:01:04.109Z,92.30
2018-09-04T03:03:35.521Z,92.40
2018-09-04T03:06:07.408Z,92.30
2018-09-04T03:08:38.394Z,92.20
2018-09-04T03:11:09.845Z,92.40
2018-09-04T03:13:41.392Z,92.50
2018-09-04T03:16:13.030Z,92.40
2018-09-04T03:18:44.479Z,92.60
2018-09-04T03:21:15.886Z,92.70
2018-09-04T03:23:47.282Z,92.80
2018-09-04T03:26:19.031Z,93.20
2018-09-04T03:28:50.141Z,93.30
2018-09-04T03:31:22.154Z,93.50
2018-09-04T03:33:54.031Z,93.70
2018-09-04T03:36:25.809Z,94.00
2018-09-04T03:38:57.109Z,94.30
2018-09-04T03:41:28.969Z,94.80
2018-09-04T03:44:00.361Z,95.20
2018-09-04T03:46:32.507Z,95.40
2018-09-04T03:49:05.919Z,95.60
2018-09-04T03:51:38.153Z,95.80
2018-09-04T03:54:09.950Z,95.90
2018-09-04T03:56:41.708Z,95.90
2018-09-04T03:59:13.361Z,96.10
2018-09-04T04:01:45.205Z,95.90
2018-09-04T04:04:16.535Z,95.70
2018-09-04T04:06:48.514Z,95.60
2018-09-04T04:09:19.946Z,95.50
2018-09-04T04:11:51.607Z,95.40
2018-09-04T04:14:22.945Z,95.40
2018-09-04T04:16:55.158Z,95.10
2018-09-04T04:19:26.823Z,95.10
2018-09-04T04:21:59.071Z,94.80
2018-09-04T04:24:30.284Z,94.40
2018-09-04T04:27:02.493Z,94.10
2018-09-04T04:29:34.336Z,93.40
2018-09-04T04:32:06.141Z,93.00
2018-09-04T04:34:37.794Z,92.60
2018-09-04T04:37:09.368Z,92.40
2018-09-04T04:39:40.799Z,91.50
2018-09-04T04:42:12.357Z,91.10
2018-09-04T04:44:43.791Z,89.70
2018-09-04T04:47:15.794Z,89.20
2018-09-04T04:49:48.449Z,89.20
2018-09-04T04:52:20.127Z,90.30
2018-09-04T04:54:51.306Z,90.10
2018-09-04T04:57:23.045Z,89.70
2018-09-04T04:59:54.656Z,87.20
2018-09-04T05:02:26.275Z,85.30
2018-09-04T05:04:57.564Z,83.60
2018-09-04T05:07:29.009Z,83.40
2018-09-04T05:10:00.333Z,82.30
2018-09-04T05:12:32.074Z,83.50
2018-09-04T05:15:03.335Z,84.70
2018-09-04T05:17:34.841Z,85.00
2018-09-04T05:20:07.525Z,85.30
2018-09-04T05:22:39.042Z,84.10
2018-09-04T05:25:10.325Z,84.40
2018-09-04T05:27:42.912Z,83.70
2018-09-04T05:30:14.121Z,83.10
2018-09-04T05:32:49.898Z,80.50
2018-09-04T05:35:22.365Z,79.30
2018-09-04T05:37:53.876Z,78.30
2018-09-04T05:40:25.016Z,78.40
2018-09-04T05:42:59.123Z,78.80
2018-09-04T05:45:31.810Z,78.90
2018-09-04T05:48:06.363Z,79.40
2018-09-04T05:50:38.466Z,80.50
2018-09-04T05:53:10.124Z,81.10
2018-09-04T05:55:41.426Z,80.90
2018-09-04T05:58:13.596Z,81.20
2018-09-04T06:00:48.516Z,80.50
2018-09-04T06:03:20.123Z,81.10
2018-09-04T06:05:52.499Z,81.00
2018-09-04T06:08:25.153Z,79.80
2018-09-04T06:10:56.356Z,79.30
2018-09-04T06:13:27.753Z,78.80
2018-09-04T06:15:58.868Z,75.30
2018-09-04T06:18:30.973Z,72.90
2018-09-04T06:21:02.322Z,72.50
2018-09-04T06:23:33.934Z,72.70
2018-09-04T06:26:05.182Z,72.50
2018-09-04T06:28:37.061Z,69.10
2018-09-04T06:31:08.393Z,69.00
2018-09-04T06:33:40.222Z,70.30
2018-09-04T06:36:11.250Z,71.90
2018-09-04T06:38:42.582Z,72.20
2018-09-04T06:41:14.702Z,72.40
2018-09-04T06:43:46.507Z,71.80
2018-09-04T06:46:17.834Z,70.40
2018-09-04T06:48:49.237Z,70.80
2018-09-04T06:51:22.035Z,72.20
2018-09-04T06:53:53.386Z,70.90
2018-09-04T06:56:24.529Z,70.40
2018-09-04T06:58:56.376Z,70.40
2018-09-04T07:01:27.537Z,70.30
2018-09-04T07:03:58.956Z,70.80
2018-09-04T07:06:30.249Z,70.50
2018-09-04T07:09:01.668Z,70.00
2018-09-04T07:11:32.822Z,69.70
2018-09-04T07:14:04.018Z,69.20
2018-09-04T07:16:35.482Z,69.40
2018-09-04T07:19:09.372Z,68.50
2018-09-04T07:21:40.486Z,67.30
2018-09-04T07:24:12.861Z,66.90
2018-09-04T07:26:44.462Z,65.90
2018-09-04T07:29:15.891Z,66.40
2018-09-04T07:31:46.996Z,65.70
2018-09-04T07:34:18.601Z,65.80
2018-09-04T07:36:49.717Z,66.90
2018-09-04T07:39:21.327Z,67.40
2018-09-04T07:41:52.545Z,67.60
2018-09-04T07:44:24.172Z,67.40
2018-09-04T07:46:55.481Z,67.60
2018-09-04T07:49:27.842Z,67.20
2018-09-04T07:52:00.482Z,67.10
2018-09-04T07:54:32.085Z,67.10
2018-09-04T07:57:03.262Z,66.80
2018-09-04T07:59:34.877Z,66.50
2018-09-04T08:02:06.079Z,66.80
2018-09-04T08:04:37.387Z,66.40
2018-09-04T08:07:08.486Z,65.90
2018-09-04T08:09:39.887Z,66.10
2018-09-04T08:12:11.059Z,65.90
2018-09-04T08:14:42.586Z,65.60
2018-09-04T08:17:13.753Z,66.00
2018-09-04T08:19:45.335Z,65.90
2018-09-04T08:22:17.198Z,65.60
2018-09-04T08:24:49.141Z,65.30
2018-09-04T08:27:20.083Z,64.80
2018-09-04T08:29:51.569Z,65.20
2018-09-04T08:32:22.881Z,64.80
2018-09-04T08:34:54.362Z,64.50
2018-09-04T08:37:25.873Z,64.80
2018-09-04T08:39:57.519Z,66.00
2018-09-04T08:42:28.871Z,64.50
2018-09-04T08:45:00.285Z,64.30
2018-09-04T08:47:32.041Z,63.90
2018-09-04T08:50:04.564Z,64.30
2018-09-04T08:52:37.397Z,64.90
2018-09-04T08:55:09.140Z,64.40
2018-09-04T08:57:40.798Z,64.30
2018-09-04T09:00:12.330Z,64.60
2018-09-04T09:02:43.880Z,65.30
2018-09-04T09:05:15.814Z,63.50
2018-09-04T09:07:47.022Z,63.90
2018-09-04T09:10:18.739Z,63.90
2018-09-04T09:12:50.129Z,64.10
2018-09-04T09:15:22.398Z,64.50
2018-09-04T09:17:53.798Z,64.30
2018-09-04T09:20:25.686Z,63.30
2018-09-04T09:22:57.369Z,63.10
2018-09-04T09:25:28.982Z,63.30
2018-09-04T09:28:00.839Z,63.40
2018-09-04T09:30:33.402Z,62.90
2018-09-04T09:33:05.330Z,63.20
2018-09-04T09:35:37.152Z,62.70
2018-09-04T09:38:08.794Z,62.20
2018-09-04T09:40:40.338Z,63.40
2018-09-04T09:43:11.811Z,63.20
2018-09-04T09:45:43.723Z,63.30
2018-09-04T09:48:15.006Z,62.70
2018-09-04T09:50:46.674Z,62.60
2018-09-04T09:53:18.835Z,63.00
2018-09-04T09:55:50.670Z,62.70
2018-09-04T09:58:21.904Z,63.70
2018-09-04T10:00:53.651Z,63.80
2018-09-04T10:03:29.905Z,62.40
2018-09-04T10:06:02.374Z,62.70
2018-09-04T10:08:33.801Z,62.20
2018-09-04T10:11:05.778Z,62.80
2018-09-04T10:13:37.030Z,62.40
2018-09-04T10:16:09.076Z,62.50
2018-09-04T10:18:40.353Z,63.20
2018-09-04T10:21:12.021Z,62.90
2018-09-04T10:23:43.354Z,62.40
2018-09-04T10:26:15.125Z,63.10
2018-09-04T10:28:46.869Z,62.80
2018-09-04T10:31:18.578Z,63.30
2018-09-04T10:33:50.046Z,62.60
2018-09-04T10:36:21.560Z,62.40
2018-09-04T10:38:57.491Z,63.00
2018-09-04T10:41:29.327Z,63.40
2018-09-04T10:44:00.643Z,63.10
2018-09-04T10:46:32.403Z,62.90
2018-09-04T10:49:03.845Z,62.40
2018-09-04T10:51:35.497Z,62.60
2018-09-04T10:54:08.612Z,63.30
2018-09-04T10:56:40.415Z,65.30
2018-09-04T10:59:11.741Z,71.60
2018-09-04T11:01:43.489Z,72.10
2018-09-04T11:04:14.934Z,73.10
2018-09-04T11:06:46.473Z,72.40
2018-09-04T11:09:17.962Z,73.40
2018-09-04T11:11:49.585Z,73.00
2018-09-04T11:14:20.881Z,75.60
2018-09-04T11:16:52.592Z,75.00
2018-09-04T11:19:23.750Z,75.30
2018-09-04T11:21:55.417Z,76.40
2018-09-04T11:24:27.002Z,77.20
2018-09-04T11:26:58.717Z,76.70
2018-09-04T11:29:30.262Z,76.90
2018-09-04T11:32:02.600Z,78.20
2018-09-04T11:34:34.117Z,79.50
2018-09-04T11:37:05.712Z,86.40
2018-09-04T11:39:37.152Z,91.00
2018-09-04T11:42:09.584Z,92.80
2018-09-04T11:44:41.270Z,94.10
2018-09-04T11:47:13.618Z,95.10
2018-09-04T11:49:45.730Z,95.90
2018-09-04T11:52:17.797Z,96.50
2018-09-04T11:54:50.448Z,97.30
2018-09-04T11:57:22.117Z,97.80
2018-09-04T11:59:54.584Z,97.50
2018-09-04T12:02:29.009Z,96.80
2018-09-04T12:05:00.149Z,97.20
2018-09-04T12:07:32.793Z,95.70
2018-09-04T12:10:04.150Z,95.40
2018-09-04T12:12:36.503Z,95.30
2018-09-04T12:15:07.853Z,95.10
2018-09-04T12:17:39.546Z,95.50
2018-09-04T12:20:47.854Z,95.80
2018-09-04T12:23:21.778Z,95.60
2018-09-04T12:25:55.105Z,95.40
2018-09-04T12:28:26.805Z,95.30
2018-09-04T12:30:58.938Z,95.90
2018-09-04T12:33:30.962Z,96.00
2018-09-04T12:36:04.171Z,96.70
2018-09-04T12:38:37.955Z,97.30
2018-09-04T12:41:15.865Z,97.30
2018-09-04T12:43:47.710Z,97.00
2018-09-04T12:46:19.039Z,96.30
2018-09-04T12:48:52.023Z,96.30
2018-09-04T12:51:23.497Z,96.10
2018-09-04T12:53:55.609Z,96.00
2018-09-04T12:56:28.105Z,96.10
2018-09-04T12:58:59.809Z,95.70
2018-09-04T13:01:31.350Z,95.40
2018-09-04T13:04:02.689Z,96.00
2018-09-04T13:06:34.120Z,95.50
2018-09-04T13:09:07.027Z,95.20
2018-09-04T13:11:38.455Z,95.00
2018-09-04T13:14:10.314Z,95.20
2018-09-04T13:16:41.719Z,94.90
2018-09-04T13:19:13.597Z,95.10
2018-09-04T13:21:45.215Z,95.80
2018-09-04T13:24:16.723Z,95.40
2018-09-04T13:26:48.085Z,96.20
2018-09-04T13:29:20.346Z,96.30
2018-09-04T13:31:51.857Z,96.20
2018-09-04T13:34:24.025Z,96.60
2018-09-04T13:36:55.305Z,96.20
2018-09-04T13:39:28.078Z,96.10
2018-09-04T13:41:59.433Z,96.40
2018-09-04T13:44:31.262Z,96.30
2018-09-04T13:47:02.465Z,96.10
2018-09-04T13:49:34.424Z,95.40
2018-09-04T13:52:05.894Z,95.30
2018-09-04T13:54:37.418Z,95.00
2018-09-04T13:57:10.258Z,94.80
2018-09-04T13:59:44.629Z,94.80
2018-09-04T14:02:15.973Z,94.40
2018-09-04T14:04:48.115Z,93.90
2018-09-04T14:07:19.638Z,93.60
2018-09-04T14:09:51.202Z,93.40
2018-09-04T14:12:22.614Z,93.10
2018-09-04T14:14:54.385Z,92.80
2018-09-04T14:17:25.877Z,92.40
2018-09-04T14:19:57.606Z,92.30
2018-09-04T14:22:29.333Z,92.00
2018-09-04T14:25:01.048Z,91.60
2018-09-04T14:27:32.381Z,91.80
2018-09-04T14:30:17.391Z,91.50
2018-09-04T14:32:35.981Z,91.20
2018-09-04T14:35:08.121Z,90.90
2018-09-04T14:37:39.541Z,91.10
2018-09-04T14:40:11.357Z,91.10
2018-09-04T14:42:42.861Z,91.40
2018-09-04T14:45:14.726Z,91.60
2018-09-04T14:47:46.141Z,91.40
2018-09-04T14:50:18.122Z,91.10
2018-09-04T14:52:49.721Z,90.90
2018-09-04T14:55:21.273Z,90.90
2018-09-04T14:57:53.658Z,91.00
2018-09-04T15:00:25.916Z,91.20
2018-09-04T15:02:57.197Z,91.30
2018-09-04T15:05:28.861Z,91.40
2018-09-04T15:08:00.211Z,91.40
2018-09-04T15:10:31.790Z,91.10
2018-09-04T15:13:04.776Z,90.90
2018-09-04T15:15:36.456Z,90.70
2018-09-04T15:18:07.853Z,90.50
2018-09-04T15:20:39.514Z,91.00
2018-09-04T15:23:11.042Z,91.00
2018-09-04T15:25:42.851Z,91.00
2018-09-04T15:28:14.374Z,91.10
2018-09-04T15:30:46.265Z,90.70
2018-09-04T15:33:17.501Z,90.60
2018-09-04T15:35:49.457Z,90.60
2018-09-04T15:38:20.887Z,90.80
2018-09-04T15:40:52.506Z,91.00
2018-09-04T15:43:23.995Z,91.10
2018-09-04T15:45:55.464Z,91.40
2018-09-04T15:48:26.925Z,91.60
2018-09-04T15:50:58.834Z,92.10
2018-09-04T15:53:30.066Z,92.50
2018-09-04T15:56:01.910Z,92.90
2018-09-04T15:58:34.170Z,93.10
2018-09-04T16:01:05.965Z,93.20
2018-09-04T16:03:37.187Z,93.40
2018-09-04T16:06:08.905Z,93.70
2018-09-04T16:08:40.996Z,93.80
2018-09-04T16:11:12.997Z,93.90
2018-09-04T16:13:44.222Z,93.90
2018-09-04T16:16:15.894Z,94.40
2018-09-04T16:18:47.497Z,94.00
2018-09-04T16:21:19.256Z,94.10
2018-09-04T16:23:50.726Z,94.10
2018-09-04T16:26:22.434Z,94.00
2018-09-04T16:28:53.773Z,93.90
2018-09-04T16:31:25.871Z,93.90
2018-09-04T16:33:57.312Z,93.90
2018-09-04T16:36:28.686Z,93.80
2018-09-04T16:39:00.137Z,93.80
2018-09-04T16:41:32.063Z,93.60
2018-09-04T16:44:03.405Z,93.40
2018-09-04T16:46:35.337Z,93.40
2018-09-04T16:49:07.939Z,93.30
2018-09-04T16:51:40.017Z,93.10
2018-09-04T16:54:11.240Z,92.90
2018-09-04T16:56:43.450Z,92.60
2018-09-04T16:59:16.242Z,92.60
2018-09-04T17:01:47.893Z,92.50
2018-09-04T17:04:19.514Z,92.40
2018-09-04T17:06:51.200Z,92.40
2018-09-04T17:09:22.519Z,92.20
2018-09-04T17:11:53.983Z,92.00
2018-09-04T17:14:25.491Z,92.00
2018-09-04T17:17:41.734Z,92.00
2018-09-04T17:20:14.734Z,91.90
2018-09-04T17:22:47.311Z,92.00
2018-09-04T17:25:18.725Z,92.00
2018-09-04T17:27:50.664Z,92.00
2018-09-04T17:30:22.022Z,92.00
2018-09-04T17:32:54.441Z,92.10
2018-09-04T17:35:25.866Z,92.10
2018-09-04T17:37:57.911Z,92.10
2018-09-04T17:40:29.477Z,92.20
2018-09-04T17:43:01.273Z,92.30
2018-09-04T17:45:32.692Z,92.30
2018-09-04T17:48:04.790Z,92.30
2018-09-04T17:50:36.290Z,92.30
2018-09-04T17:53:07.781Z,92.40
2018-09-04T17:55:39.277Z,92.50
2018-09-04T17:58:10.938Z,92.50
2018-09-04T18:00:43.982Z,92.60
2018-09-04T18:03:15.642Z,92.80
2018-09-04T18:05:51.711Z,92.80
2018-09-04T18:08:23.447Z,92.90
2018-09-04T18:10:54.906Z,93.10
2018-09-04T18:13:26.598Z,93.60
2018-09-04T18:15:57.954Z,93.50
2018-09-04T18:18:30.151Z,93.70
2018-09-04T18:21:01.614Z,94.10
2018-09-04T18:23:33.169Z,94.40
2018-09-04T18:26:05.306Z,94.80
2018-09-04T18:28:38.150Z,95.10
2018-09-04T18:31:09.529Z,95.50
2018-09-04T18:33:41.066Z,95.70
2018-09-04T18:36:12.613Z,95.90
2018-09-04T18:38:44.950Z,96.60
2018-09-04T18:41:16.228Z,97.00
2018-09-04T18:43:48.013Z,97.80
2018-09-04T18:46:19.536Z,98.30
2018-09-04T18:48:54.397Z,98.80
2018-09-04T18:51:26.520Z,99.30
2018-09-04T18:53:58.979Z,99.60
2018-09-04T18:56:31.136Z,99.90
2018-09-04T18:59:02.775Z,99.90
2018-09-04T19:01:36.437Z,99.90
2018-09-04T19:04:08.229Z,99.90
2018-09-04T19:06:39.648Z,99.90
2018-09-04T19:09:11.461Z,99.90
2018-09-04T19:11:42.733Z,99.90
2018-09-04T19:14:14.505Z,99.90
2018-09-04T19:16:45.881Z,99.90
2018-09-04T19:19:17.776Z,99.90
2018-09-04T19:21:49.225Z,99.90
2018-09-04T19:24:21.177Z,99.90
2018-09-04T19:26:52.519Z,99.90
2018-09-04T19:29:24.377Z,99.90
2018-09-04T19:31:56.011Z,99.90
2018-09-04T19:34:27.575Z,99.90
2018-09-04T19:36:59.043Z,99.90
2018-09-04T19:39:30.670Z,99.90
2018-09-04T19:42:02.537Z,99.90
2018-09-04T19:44:34.783Z,99.90
2018-09-04T19:47:07.266Z,99.90
2018-09-04T19:49:39.041Z,99.90
2018-09-04T19:52:10.430Z,99.90
2018-09-04T19:54:42.496Z,99.90
2018-09-04T19:57:14.105Z,99.90
2018-09-04T19:59:45.867Z,99.90
2018-09-04T20:02:19.004Z,99.90
2018-09-04T20:04:50.784Z,99.90
2018-09-04T20:07:22.363Z,99.90
2018-09-04T20:09:54.130Z,99.90
2018-09-04T20:12:25.654Z,99.90
2018-09-04T20:14:57.146Z,99.90
2018-09-04T20:17:29.217Z,99.90
2018-09-04T20:20:00.974Z,99.90
2018-09-04T20:22:32.519Z,99.90
2018-09-04T20:25:06.261Z,99.90
2018-09-04T20:27:37.518Z,99.90
2018-09-04T20:30:09.857Z,99.90
2018-09-04T20:32:41.327Z,99.90
2018-09-04T20:35:13.422Z,99.90
2018-09-04T20:37:44.775Z,99.90
2018-09-04T20:40:16.889Z,99.90
2018-09-04T20:42:48.474Z,99.90
2018-09-04T20:45:20.282Z,99.90
2018-09-04T20:47:51.618Z,99.90
2018-09-04T20:50:23.281Z,99.90
2018-09-04T20:52:54.936Z,99.90
2018-09-04T20:55:26.605Z,99.90
2018-09-04T20:58:07.795Z,99.90
2018-09-04T21:00:49.091Z,99.90
2018-09-04T21:03:31.202Z,99.90
2018-09-04T21:06:12.623Z,99.90
2018-09-04T21:09:13.146Z,99.90
2018-09-04T21:11:45.388Z,99.90
2018-09-04T21:14:16.745Z,99.90
2018-09-04T21:16:48.797Z,99.90
2018-09-04T21:19:20.297Z,99.90
2018-09-04T21:21:51.881Z,99.90
2018-09-04T21:24:23.673Z,99.90
2018-09-04T21:26:55.473Z,99.90
2018-09-04T21:29:26.972Z,99.90
2018-09-04T21:31:58.847Z,99.90
2018-09-04T21:34:30.710Z,99.90
2018-09-04T21:37:02.616Z,99.90
2018-09-04T21:39:34.102Z,99.90
2018-09-04T21:42:07.826Z,99.90
2018-09-04T21:44:39.056Z,99.90
2018-09-04T21:47:11.381Z,99.90
2018-09-04T21:49:42.893Z,99.90
2018-09-04T21:52:14.766Z,99.90
2018-09-04T21:54:45.825Z,99.90
2018-09-04T21:57:17.578Z,99.90
2018-09-04T21:59:49.022Z,99.90
2018-09-04T22:02:20.652Z,99.90
2018-09-04T22:04:53.569Z,99.90
2018-09-04T22:07:25.147Z,99.90
2018-09-04T22:09:56.583Z,99.90
2018-09-04T22:12:28.208Z,99.90
2018-09-04T22:14:59.665Z,99.90
2018-09-04T22:17:31.583Z,99.90
2018-09-04T22:20:03.025Z,99.90
2018-09-04T22:22:34.594Z,99.90
2018-09-04T22:25:06.038Z,99.90
2018-09-04T22:27:37.906Z,99.90
2018-09-04T22:30:09.569Z,99.90
2018-09-04T22:32:41.299Z,99.90
2018-09-04T22:35:12.853Z,99.90
2018-09-04T22:37:44.502Z,99.90
2018-09-04T22:40:15.933Z,99.90
2018-09-04T22:42:47.789Z,99.90
2018-09-04T22:45:19.174Z,99.90
2018-09-04T22:47:51.631Z,99.90
2018-09-04T22:50:27.745Z,99.90
2018-09-04T22:52:59.525Z,99.90
2018-09-04T22:55:30.967Z,99.10
2018-09-04T22:58:04.976Z,97.00
2018-09-04T23:00:36.469Z,95.50
2018-09-04T23:03:09.746Z,94.90
2018-09-04T23:05:42.461Z,94.20
2018-09-04T23:08:13.858Z,93.20
2018-09-04T23:10:45.253Z,92.30
2018-09-04T23:13:17.436Z,92.00
2018-09-04T23:15:49.042Z,91.50
2018-09-04T23:18:20.902Z,91.20
2018-09-04T23:20:52.189Z,90.60
2018-09-04T23:23:24.093Z,90.30
2018-09-04T23:25:55.533Z,90.10
2018-09-04T23:28:27.158Z,90.00
2018-09-04T23:30:58.830Z,88.20
2018-09-04T23:33:31.592Z,88.20
2018-09-04T23:36:06.290Z,88.80
2018-09-04T23:38:38.157Z,87.90
2018-09-04T23:41:09.538Z,87.90
2018-09-04T23:43:41.606Z,87.40
2018-09-04T23:46:12.945Z,87.60
2018-09-04T23:48:44.690Z,87.60
2018-09-04T23:51:16.101Z,87.30
2018-09-04T23:53:48.224Z,87.50
2018-09-04T23:56:19.695Z,87.20
2018-09-04T23:58:51.307Z,86.80
